createdAt,value
2023-03-10T08:28:56.171Z,11.2
2023-03-10T08:31:03.940Z,11.2
2023-03-10T08:32:55.618Z,11.3
2023-03-10T08:34:55.886Z,11.3
2023-03-10T08:36:55.552Z,11.3
2023-03-10T08:38:55.554Z,11.3
2023-03-10T08:42:55.556Z,11.3
2023-03-10T08:44:55.879Z,11.3
2023-03-10T08:46:55.606Z,11.4
2023-03-10T08:48:55.629Z,11.5
2023-03-10T08:50:55.874Z,11.5
2023-03-10T08:52:55.556Z,11.5
2023-03-10T08:54:56.324Z,11.7
2023-03-10T08:56:55.572Z,11.8
2023-03-10T08:58:55.575Z,11.8
2023-03-10T09:00:55.897Z,11.9
2023-03-10T09:02:55.652Z,12
2023-03-10T09:04:56.198Z,12.1
2023-03-10T09:06:55.574Z,12.1
2023-03-10T09:08:55.581Z,12
2023-03-10T09:10:55.867Z,12
2023-03-10T09:14:55.533Z,11.9
2023-03-10T09:16:55.590Z,11.8
2023-03-10T09:18:55.548Z,11.8
2023-03-10T09:24:55.581Z,11.1
2023-03-10T09:26:55.904Z,11.1
2023-03-10T09:28:57.166Z,11.1
2023-03-10T09:30:55.563Z,10.9
2023-03-10T09:32:55.632Z,10.5
2023-03-10T09:34:55.545Z,10.2
2023-03-10T09:36:55.557Z,10.2
2023-03-10T09:40:55.588Z,9.9
2023-03-10T09:42:55.900Z,10
2023-03-10T09:44:55.917Z,9.9
2023-03-10T09:46:55.894Z,9.9
2023-03-10T09:48:55.564Z,10
2023-03-10T09:50:55.575Z,10.2
2023-03-10T09:52:55.551Z,10.3
2023-03-10T09:56:55.763Z,11
2023-03-10T09:58:55.589Z,11.4
2023-03-10T10:00:55.571Z,11.4
2023-03-10T10:02:55.907Z,11.3
2023-03-10T10:04:55.893Z,10.7
2023-03-10T10:06:55.873Z,11
2023-03-10T10:09:04.067Z,10.8
2023-03-10T10:10:55.593Z,10.7
2023-03-10T10:12:55.567Z,10.4
2023-03-10T10:14:57.585Z,10.3
2023-03-10T10:16:55.663Z,10.2
2023-03-10T10:18:55.901Z,10.1
2023-03-10T10:20:55.878Z,10
2023-03-10T10:22:56.203Z,10.1
2023-03-10T10:24:55.877Z,10.2
2023-03-10T10:26:55.564Z,10.2
2023-03-10T10:28:55.550Z,10.3
2023-03-10T10:30:55.584Z,10.4
2023-03-10T10:32:55.642Z,10.4
2023-03-10T10:34:56.151Z,10.9
2023-03-10T10:36:55.580Z,11
2023-03-10T10:38:55.566Z,11.4
2023-03-10T10:40:55.910Z,11.5
2023-03-10T10:42:55.892Z,11.6
2023-03-10T10:44:55.570Z,11.7
2023-03-10T10:46:55.557Z,11.7
2023-03-10T10:48:55.557Z,11.7
2023-03-10T10:50:55.885Z,11.8
2023-03-10T10:52:55.908Z,11.8
2023-03-10T10:54:55.558Z,11.8
2023-03-10T10:56:55.563Z,11.8
2023-03-10T10:58:55.555Z,11.9
2023-03-10T11:00:55.581Z,12
2023-03-10T11:02:55.640Z,12
2023-03-10T11:04:55.553Z,12
2023-03-10T11:06:55.872Z,12
2023-03-10T11:08:55.586Z,11.8
2023-03-10T11:10:55.548Z,11.6
2023-03-10T11:12:55.881Z,11.7
2023-03-10T11:14:57.604Z,11.8
2023-03-10T11:16:56.222Z,11.9
2023-03-10T11:18:55.594Z,11.8
2023-03-10T11:20:55.565Z,11.8
2023-03-10T11:22:55.554Z,11.8
2023-03-10T11:24:55.904Z,11.4
2023-03-10T11:26:55.591Z,11.7
2023-03-10T11:28:55.570Z,11.8
2023-03-10T11:30:55.590Z,11.8
2023-03-10T11:32:55.589Z,11.8
2023-03-10T11:34:55.553Z,11.4
2023-03-10T11:36:57.069Z,11.7
2023-03-10T11:38:55.557Z,11.9
2023-03-10T11:40:56.919Z,12.1
2023-03-10T11:42:55.884Z,12
2023-03-10T11:44:55.579Z,12
2023-03-10T11:46:55.581Z,12
2023-03-10T11:48:55.888Z,12
2023-03-10T11:50:55.581Z,12
2023-03-10T11:52:55.575Z,12
2023-03-10T11:54:55.582Z,12
2023-03-10T11:56:55.556Z,12.1
2023-03-10T11:58:55.566Z,11.9
2023-03-10T12:00:55.558Z,12.1
2023-03-10T12:02:55.891Z,12.1
2023-03-10T12:04:55.587Z,12.1
2023-03-10T12:06:56.218Z,12.1
2023-03-10T12:08:57.488Z,12.1
2023-03-10T12:10:55.576Z,12.1
2023-03-10T12:12:55.915Z,12.1
2023-03-10T12:14:58.365Z,12.1
2023-03-10T12:16:55.582Z,12.2
2023-03-10T12:18:55.567Z,11.5
2023-03-10T12:22:55.588Z,12
2023-03-10T12:24:55.604Z,12
2023-03-10T12:26:55.919Z,12
2023-03-10T12:28:57.764Z,12.1
2023-03-10T12:30:55.565Z,12.2
2023-03-10T12:32:56.258Z,12.2
2023-03-10T12:36:55.566Z,11.8
2023-03-10T12:38:55.560Z,11.6
2023-03-10T12:40:55.612Z,11.6
2023-03-10T12:42:55.889Z,11.8
2023-03-10T12:44:55.894Z,12.1
2023-03-10T12:46:55.587Z,12
2023-03-10T12:48:55.564Z,11.7
2023-03-10T12:50:55.573Z,12
2023-03-10T12:52:55.889Z,12
2023-03-10T12:54:55.563Z,11.9
2023-03-10T12:56:55.579Z,12.1
2023-03-10T12:58:55.565Z,12.1
2023-03-10T13:00:55.966Z,12
2023-03-10T13:02:55.565Z,11.5
2023-03-10T13:04:55.564Z,11.6
2023-03-10T13:06:55.897Z,11.4
2023-03-10T13:08:55.598Z,11.5
2023-03-10T13:10:55.593Z,11.4
2023-03-10T13:12:55.911Z,11.3
2023-03-10T13:14:55.589Z,12
2023-03-10T13:16:55.612Z,12
2023-03-10T13:18:55.925Z,11.9
2023-03-10T13:20:55.929Z,11.8
2023-03-10T13:22:55.891Z,11.5
2023-03-10T13:24:55.887Z,11.7
2023-03-10T13:26:55.928Z,11.6
2023-03-10T13:28:55.910Z,11.7
2023-03-10T13:30:55.596Z,11.3
2023-03-10T13:32:56.264Z,11.5
2023-03-10T13:34:55.603Z,11.5
2023-03-10T13:36:55.588Z,12.1
2023-03-10T13:38:55.576Z,11.8
2023-03-10T13:40:55.579Z,11.7
2023-03-10T13:42:55.575Z,11.5
2023-03-10T13:44:55.908Z,11
2023-03-10T13:46:55.614Z,11.3
2023-03-10T13:48:55.590Z,11.3
2023-03-10T13:50:55.897Z,11.1
2023-03-10T13:52:56.255Z,10.7
2023-03-10T13:54:55.601Z,10.7
2023-03-10T13:56:56.321Z,10.6
2023-03-10T13:58:55.606Z,10.7
2023-03-10T14:00:55.646Z,10.5
2023-03-10T14:02:55.921Z,10.4
2023-03-10T14:06:55.603Z,10.7
2023-03-10T14:08:55.927Z,10.7
2023-03-10T14:10:55.921Z,10.8
2023-03-10T14:12:56.247Z,10.8
2023-03-10T14:14:55.617Z,10.7
2023-03-10T14:16:55.634Z,10.6
2023-03-10T14:18:55.592Z,10.6
2023-03-10T14:20:55.582Z,10.5
2023-03-10T14:22:55.590Z,10.4
2023-03-10T14:24:55.565Z,10.5
2023-03-10T14:26:55.580Z,10.5
2023-03-10T14:28:55.574Z,10.5
2023-03-10T14:30:55.679Z,10.3
2023-03-10T14:32:55.714Z,9.9
2023-03-10T14:34:55.571Z,9.9
2023-03-10T14:36:55.905Z,9.8
2023-03-10T14:38:56.853Z,9.7
2023-03-10T14:40:56.175Z,9.6
2023-03-10T14:42:55.593Z,9.7
2023-03-10T14:46:55.797Z,9.3
2023-03-10T14:48:55.571Z,9.1
2023-03-10T14:50:56.886Z,9
2023-03-10T14:52:55.926Z,9
2023-03-10T14:54:55.567Z,9
2023-03-10T14:56:55.571Z,8.9
2023-03-10T14:58:55.575Z,8.8
2023-03-10T15:00:55.617Z,8.8
2023-03-10T15:02:55.596Z,8.9
2023-03-10T15:06:55.580Z,8.9
2023-03-10T15:10:55.908Z,8.6
2023-03-10T15:12:55.608Z,8.7
2023-03-10T15:14:55.609Z,8.7
2023-03-10T15:16:56.562Z,8.8
2023-03-10T15:18:55.578Z,8.7
2023-03-10T15:20:55.580Z,8.7
2023-03-10T15:22:55.572Z,8.8
2023-03-10T15:24:55.907Z,8.8
2023-03-10T15:26:55.599Z,8.7
2023-03-10T15:28:56.202Z,8.7
2023-03-10T15:30:56.021Z,8.7
2023-03-10T15:32:55.982Z,8.5
2023-03-10T15:36:55.604Z,8.4
2023-03-10T15:38:55.622Z,8.4
2023-03-10T15:40:55.604Z,8.2
2023-03-10T15:42:55.625Z,8
2023-03-10T15:44:55.632Z,7.9
2023-03-10T15:46:55.643Z,7.9
2023-03-10T15:48:55.619Z,7.9
2023-03-10T15:50:57.364Z,7.8
2023-03-10T15:52:55.607Z,7.7
2023-03-10T15:54:55.579Z,7.6
2023-03-10T15:56:55.592Z,7.6
2023-03-10T15:58:55.600Z,7.6
2023-03-10T16:00:55.590Z,7.6
2023-03-10T16:02:55.591Z,7.8
2023-03-10T16:06:55.927Z,7.8
2023-03-10T16:08:55.588Z,7.8
2023-03-10T16:10:55.583Z,7.9
2023-03-10T16:12:55.578Z,7.8
2023-03-10T16:14:55.587Z,7.9
2023-03-10T16:16:55.590Z,7.9
2023-03-10T16:18:55.611Z,7.9
2023-03-10T16:20:55.595Z,7.9
2023-03-10T16:22:55.572Z,8
2023-03-10T16:24:55.914Z,7.9
2023-03-10T16:26:55.935Z,8
2023-03-10T16:28:55.599Z,8
2023-03-10T16:30:55.586Z,8
2023-03-10T16:32:55.671Z,7.9
2023-03-10T16:36:55.601Z,8
2023-03-10T16:38:55.611Z,8
2023-03-10T16:40:55.597Z,8
2023-03-10T16:42:55.594Z,8
2023-03-10T16:44:55.581Z,7.9
2023-03-10T16:46:55.588Z,7.7
2023-03-10T16:48:55.591Z,7.5
2023-03-10T16:50:55.599Z,7.3
2023-03-10T16:52:55.577Z,7
2023-03-10T16:54:56.223Z,6.8
2023-03-10T16:58:55.598Z,5.7
2023-03-10T17:00:55.612Z,5.7
2023-03-10T17:02:55.589Z,5.8
2023-03-10T17:04:55.945Z,6
2023-03-10T17:06:55.586Z,6.1
2023-03-10T17:08:55.589Z,6.2
2023-03-10T17:10:55.597Z,6.2
2023-03-10T17:12:55.921Z,6.2
2023-03-10T17:14:55.587Z,6.2
2023-03-10T17:16:55.661Z,6.2
2023-03-10T17:18:55.581Z,6.2
2023-03-10T17:20:55.910Z,6.1
2023-03-10T17:22:55.632Z,6.1
2023-03-10T17:24:55.587Z,6
2023-03-10T17:26:55.945Z,6
2023-03-10T17:28:55.931Z,6.1
2023-03-10T17:30:55.615Z,6.2
2023-03-10T17:32:55.659Z,6
2023-03-10T17:34:55.619Z,6
2023-03-10T17:36:55.957Z,6
2023-03-10T17:38:56.248Z,6.1
2023-03-10T17:40:55.632Z,6.1
2023-03-10T17:42:56.613Z,6.1
2023-03-10T17:44:55.935Z,6.1
2023-03-10T17:46:55.618Z,6.2
2023-03-10T17:48:55.931Z,6.3
2023-03-10T17:50:55.627Z,6.1
2023-03-10T17:52:55.590Z,6.1
2023-03-10T17:54:55.596Z,6.2
2023-03-10T17:56:55.976Z,6.2
2023-03-10T17:58:56.267Z,6.2
2023-03-10T18:00:55.927Z,6.1
2023-03-10T18:02:56.070Z,6.1
2023-03-10T18:04:55.618Z,6.1
2023-03-10T18:06:55.617Z,5.9
2023-03-10T18:08:56.519Z,5.6
2023-03-10T18:10:55.917Z,5.4
2023-03-10T18:12:55.630Z,5.2
2023-03-10T18:14:56.226Z,5
2023-03-10T18:18:55.593Z,4.8
2023-03-10T18:20:55.584Z,4.9
2023-03-10T18:24:55.598Z,5
2023-03-10T18:26:55.606Z,5.1
2023-03-10T18:28:56.221Z,5.1
2023-03-10T18:30:55.988Z,5.2
2023-03-10T18:32:55.772Z,5.3
2023-03-10T18:34:55.595Z,5.4
2023-03-10T18:38:55.918Z,5.5
2023-03-10T18:40:55.602Z,5.4
2023-03-10T18:42:55.603Z,5.3
2023-03-10T18:44:55.596Z,5.4
2023-03-10T18:46:55.918Z,5.4
2023-03-10T18:48:55.720Z,5.4
2023-03-10T18:50:55.603Z,5.4
2023-03-10T18:52:55.606Z,5.4
2023-03-10T18:54:56.245Z,5.3
2023-03-10T18:56:55.631Z,5.3
2023-03-10T18:58:55.596Z,5.2
2023-03-10T19:00:55.946Z,5.1
2023-03-10T19:02:55.721Z,4.9
2023-03-10T19:04:55.612Z,4.9
2023-03-10T19:06:58.312Z,4.8
2023-03-10T19:08:56.230Z,4.8
2023-03-10T19:10:55.622Z,4.8
2023-03-10T19:12:55.612Z,4.7
2023-03-10T19:14:55.611Z,4.7
2023-03-10T19:16:55.924Z,4.6
2023-03-10T19:18:56.627Z,4.6
2023-03-10T19:20:55.584Z,4.5
2023-03-10T19:22:55.931Z,4.6
2023-03-10T19:24:55.608Z,4.5
2023-03-10T19:26:55.617Z,4.5
2023-03-10T19:28:55.598Z,4.5
2023-03-10T19:30:55.650Z,4.6
2023-03-10T19:32:55.954Z,4.6
2023-03-10T19:34:55.625Z,4.6
2023-03-10T19:36:55.639Z,4.7
2023-03-10T19:38:55.595Z,4.6
2023-03-10T19:40:55.600Z,4.6
2023-03-10T19:42:55.616Z,4.7
2023-03-10T19:44:55.944Z,4.6
2023-03-10T19:46:55.691Z,4.7
2023-03-10T19:48:55.610Z,4.7
2023-03-10T19:50:55.608Z,4.7
2023-03-10T19:52:55.623Z,4.7
2023-03-10T19:54:55.603Z,4.7
2023-03-10T19:56:55.597Z,4.7
2023-03-10T19:58:55.597Z,4.6
2023-03-10T20:00:55.983Z,4.6
2023-03-10T20:02:55.953Z,4.6
2023-03-10T20:04:55.637Z,4.7
2023-03-10T20:06:55.601Z,4.6
2023-03-10T20:08:55.602Z,4.7
2023-03-10T20:10:55.615Z,4.7
2023-03-10T20:12:55.612Z,4.9
2023-03-10T20:14:55.601Z,4.9
2023-03-10T20:16:55.668Z,4.9
2023-03-10T20:18:56.257Z,4.8
2023-03-10T20:20:55.937Z,4.9
2023-03-10T20:22:55.624Z,4.8
2023-03-10T20:24:55.645Z,4.3
2023-03-10T20:26:55.626Z,3.9
2023-03-10T20:28:55.602Z,3.7
2023-03-10T20:30:55.613Z,3.4
2023-03-10T20:32:55.618Z,3.4
2023-03-10T20:34:55.918Z,3.6
2023-03-10T20:36:55.633Z,3.7
2023-03-10T20:38:55.603Z,3.6
2023-03-10T20:40:55.613Z,3.5
2023-03-10T20:42:55.605Z,3.5
2023-03-10T20:44:55.929Z,3.5
2023-03-10T20:46:55.632Z,3.5
2023-03-10T20:52:55.638Z,3.4
2023-03-10T20:54:55.939Z,3.4
2023-03-10T20:56:55.645Z,3.4
2023-03-10T20:58:55.960Z,3.4
2023-03-10T21:00:55.652Z,3.4
2023-03-10T21:02:55.620Z,3.4
2023-03-10T21:04:55.618Z,3.4
2023-03-10T21:06:55.606Z,3.5
2023-03-10T21:08:55.627Z,3.5
2023-03-10T21:10:55.906Z,3.6
2023-03-10T21:12:56.253Z,3.6
2023-03-10T21:14:55.952Z,3.6
2023-03-10T21:16:55.957Z,3.6
2023-03-10T21:20:55.631Z,3.7
2023-03-10T21:22:56.267Z,3.7
2023-03-10T21:24:55.657Z,3.8
2023-03-10T21:26:55.628Z,3.7
2023-03-10T21:28:55.614Z,3.7
2023-03-10T21:30:56.120Z,3.4
2023-03-10T21:32:56.058Z,3.2
2023-03-10T21:34:55.691Z,2.6
2023-03-10T21:36:55.658Z,2.5
2023-03-10T21:38:55.982Z,2.3
2023-03-10T21:40:55.948Z,2.3
2023-03-10T21:42:55.621Z,2.4
2023-03-10T21:44:55.612Z,2.5
2023-03-10T21:46:55.620Z,2.5
2023-03-10T21:48:55.956Z,2.4
2023-03-10T21:50:55.644Z,2.4
2023-03-10T21:52:56.037Z,2.6
2023-03-10T21:54:55.654Z,2.5
2023-03-10T22:00:56.290Z,2.7
2023-03-10T22:02:55.616Z,2.7
2023-03-10T22:04:56.022Z,2.8
2023-03-10T22:06:55.612Z,2.6
2023-03-10T22:08:55.938Z,2.7
2023-03-10T22:10:55.617Z,2.6
2023-03-10T22:12:55.628Z,2.7
2023-03-10T22:14:55.942Z,2.6
2023-03-10T22:16:55.624Z,2.6
2023-03-10T22:18:55.628Z,2.6
2023-03-10T22:20:55.649Z,2.7
2023-03-10T22:22:55.611Z,2.7
2023-03-10T22:24:55.624Z,2.7
2023-03-10T22:26:55.633Z,2.6
2023-03-10T22:28:55.606Z,2.6
2023-03-10T22:30:55.648Z,2.6
2023-03-10T22:32:55.619Z,2.5
2023-03-10T22:34:55.607Z,2.5
2023-03-10T22:36:55.624Z,2.5
2023-03-10T22:38:55.617Z,2.5
2023-03-10T22:40:56.234Z,2.5
2023-03-10T22:42:55.973Z,2.5
2023-03-10T22:44:55.609Z,2.4
2023-03-10T22:46:56.011Z,2.3
2023-03-10T22:48:55.976Z,2.2
2023-03-10T22:50:55.967Z,2.3
2023-03-10T22:52:55.642Z,2.2
2023-03-10T22:54:55.947Z,2.2
2023-03-10T22:56:55.645Z,2.1
2023-03-10T22:58:55.994Z,2.1
2023-03-10T23:00:55.618Z,2.1
2023-03-10T23:02:55.676Z,2
2023-03-10T23:04:55.625Z,2
2023-03-10T23:06:55.605Z,2
2023-03-10T23:08:55.936Z,1.9
2023-03-10T23:10:56.235Z,2
2023-03-10T23:12:55.965Z,1.9
2023-03-10T23:14:55.985Z,1.8
2023-03-10T23:16:55.641Z,1.8
2023-03-10T23:18:56.272Z,1.8
2023-03-10T23:20:55.636Z,1.7
2023-03-10T23:22:55.637Z,1.7
2023-03-10T23:24:55.610Z,1.7
2023-03-10T23:26:55.956Z,1.7
2023-03-10T23:28:55.655Z,1.7
2023-03-10T23:30:55.640Z,1.8
2023-03-10T23:32:55.967Z,1.7
2023-03-10T23:34:55.673Z,1.7
2023-03-10T23:36:56.280Z,1.8
2023-03-10T23:38:55.983Z,1.8
2023-03-10T23:40:55.665Z,1.7
2023-03-10T23:42:55.993Z,1.7
2023-03-10T23:44:55.642Z,1.6
2023-03-10T23:46:55.637Z,1.6
2023-03-10T23:48:55.642Z,1.6
2023-03-10T23:50:55.958Z,1.6
2023-03-10T23:52:55.639Z,1.6
2023-03-10T23:54:55.616Z,1.6
2023-03-10T23:56:55.618Z,1.6
2023-03-10T23:58:55.612Z,1.7
